Time;durP1;ratioP1;P1;durP2;ratioP2;P2;SDS_P1;SDS_P2;PMS_P1;PMS_P2;Temp;Humidity;BMP_temperature;BMP_pressure;BME280_temperature;BME280_humidity;BME280_pressure;Samples;Min_cycle;Max_cycle;Signal;HPM_P1;HPM_P2
2023/03/30 00:00:22;;;;;;;9.57;7.30;;;;;;;;;;4883559;29;23124;-79
2023/03/30 00:02:49;;;;;;;14.23;7.25;;;;;;;;;;4908900;29;20040;-77
2023/03/30 00:05:16;;;;;;;12.00;6.90;;;;;;;;;;4902156;29;20040;-77
2023/03/30 00:07:44;;;;;;;17.40;7.75;;;;;;;;;;4906558;29;20039;-79
2023/03/30 00:10:16;;;;;;;10.70;5.95;;;;;;;;;;4891142;29;20028;-78
2023/03/30 00:12:45;;;;;;;7.38;5.28;;;;;;;;;;4884857;29;20120;-77
2023/03/30 00:15:12;;;;;;;11.48;6.57;;;;;;;;;;4918303;29;20053;-76
2023/03/30 00:17:39;;;;;;;14.15;6.72;;;;;;;;;;4886859;29;20044;-78
2023/03/30 00:20:10;;;;;;;13.20;6.40;;;;;;;;;;4893190;29;20025;-78
2023/03/30 00:22:36;;;;;;;7.60;5.72;;;;;;;;;;4886145;29;20104;-76
2023/03/30 00:25:02;;;;;;;11.95;6.97;;;;;;;;;;4890590;29;20044;-78
2023/03/30 00:27:28;;;;;;;7.38;5.25;;;;;;;;;;4905240;29;20362;-76
2023/03/30 00:29:54;;;;;;;8.85;5.85;;;;;;;;;;4904350;29;20025;-77
2023/03/30 00:32:20;;;;;;;9.75;6.00;;;;;;;;;;4889549;29;20466;-76
2023/03/30 00:34:46;;;;;;;11.15;5.97;;;;;;;;;;4883620;29;20299;-76
2023/03/30 00:37:14;;;;;;;12.77;5.72;;;;;;;;;;4918557;29;20032;-76
2023/03/30 00:39:40;;;;;;;9.93;6.20;;;;;;;;;;4880051;29;20025;-76
2023/03/30 00:42:06;;;;;;;12.57;6.13;;;;;;;;;;4920376;29;20065;-78
2023/03/30 00:45:17;;;;;;;10.13;5.93;;;12.10;99.90;;;;;;4884566;29;20040;-79
2023/03/30 00:47:55;;;;;;;15.05;6.20;;;;;;;;;;4892065;29;20127;-76
2023/03/30 00:50:23;;;;;;;10.90;6.93;;;;;;;;;;4886312;29;20028;-78
2023/03/30 00:52:51;;;;;;;14.77;6.05;;;;;;;;;;4888245;29;20047;-76
2023/03/30 00:55:18;;;;;;;12.15;5.35;;;;;;;;;;4888131;29;20029;-76
2023/03/30 00:57:44;;;;;;;11.13;5.55;;;;;;;;;;4917926;29;20119;-76
2023/03/30 01:00:11;;;;;;;10.20;5.65;;;;;;;;;;4892188;29;20017;-77
2023/03/30 01:02:41;;;;;;;12.35;5.20;;;;;;;;;;4875594;29;20037;-76
2023/03/30 01:05:07;;;;;;;10.98;5.18;;;;;;;;;;4886458;29;20116;-76
2023/03/30 01:07:34;;;;;;;10.48;5.45;;;;;;;;;;4903481;29;20072;-77
2023/03/30 01:10:01;;;;;;;11.15;5.95;;;;;;;;;;4907919;29;20025;-77
2023/03/30 01:12:28;;;;;;;15.75;5.20;;;;;;;;;;4888167;29;20053;-76
2023/03/30 01:14:55;;;;;;;14.45;6.00;;;;;;;;;;4887768;29;20060;-76
2023/03/30 01:17:27;;;;;;;9.18;5.57;;;;;;;;;;4876797;29;20037;-76
2023/03/30 01:19:57;;;;;;;10.85;5.28;;;;;;;;;;4883013;29;20033;-76
2023/03/30 01:22:35;;;;;;;13.35;6.03;;;;;;;;;;4882915;29;20033;-76
2023/03/30 01:25:20;;;;;;;12.05;5.25;;;;;;;;;;4903508;29;20080;-77
2023/03/30 01:27:49;;;;;;;11.30;5.40;;;;;;;;;;4887013;29;20371;-76
2023/03/30 01:30:29;;;;;;;10.95;5.20;;;;;;;;;;4887906;29;20020;-76
2023/03/30 01:33:08;;;;;;;11.63;5.28;;;;;;;;;;4883479;29;20029;-76
2023/03/30 01:35:46;;;;;;;9.35;5.18;;;;;;;;;;4889370;29;20028;-76
2023/03/30 01:38:15;;;;;;;11.38;4.53;;;;;;;;;;4885643;29;20016;-79
2023/03/30 01:40:50;;;;;;;10.68;4.53;;;;;;;;;;4888020;29;20531;-77
2023/03/30 01:43:17;;;;;;;13.32;4.85;;;;;;;;;;4887346;29;20029;-76
2023/03/30 01:46:02;;;;;;;8.80;3.33;;;;;;;;;;4883093;29;20462;-77
2023/03/30 01:48:34;;;;;;;10.95;4.20;;;;;;;;;;4885592;29;20413;-77
2023/03/30 01:51:04;;;;;;;11.52;4.20;;;;;;;;;;4888780;29;20016;-78
2023/03/30 01:53:36;;;;;;;6.75;3.50;;;;;;;;;;4912711;29;20516;-76
2023/03/30 01:56:08;;;;;;;8.20;3.38;;;;;;;;;;4889940;29;20056;-77
2023/03/30 01:58:39;;;;;;;12.32;4.35;;;;;;;;;;4889922;29;20051;-76
2023/03/30 02:01:06;;;;;;;8.65;3.80;;;;;;;;;;4886343;29;20024;-77
2023/03/30 02:03:35;;;;;;;7.93;3.80;;;;;;;;;;4886015;29;20017;-76
2023/03/30 02:06:04;;;;;;;8.63;3.22;;;;;;;;;;4891474;29;20092;-77
2023/03/30 02:08:31;;;;;;;16.05;3.95;;;;;;;;;;4906018;29;20052;-77
2023/03/30 02:10:58;;;;;;;9.65;3.78;;;;;;;;;;4902285;29;20104;-80
2023/03/30 02:13:25;;;;;;;12.27;3.83;;;;;;;;;;4888903;29;20664;-76
2023/03/30 02:15:54;;;;;;;10.32;3.55;;;;;;;;;;4882838;29;20474;-77
2023/03/30 02:18:20;;;;;;;9.48;4.07;;;;;;;;;;4886758;29;20035;-77
2023/03/30 02:20:48;;;;;;;10.18;3.97;;;;;;;;;;4900786;29;20024;-78
2023/03/30 02:23:15;;;;;;;9.23;3.63;;;;;;;;;;4921193;29;20439;-78
2023/03/30 02:25:41;;;;;;;7.95;3.53;;;;;;;;;;4905262;29;20041;-78
2023/03/30 02:28:07;;;;;;;10.25;4.25;;;;;;;;;;4890373;29;20364;-79
2023/03/30 02:30:35;;;;;;;10.40;3.10;;;;;;;;;;4881988;29;20032;-77
2023/03/30 02:33:02;;;;;;;7.25;3.05;;;;;;;;;;4884050;29;20025;-77
2023/03/30 02:35:39;;;;;;;8.63;2.95;;;;;;;;;;4891145;29;20040;-77
2023/03/30 02:38:14;;;;;;;10.93;3.55;;;;;;;;;;4896921;29;20100;-78
2023/03/30 02:40:55;;;;;;;13.02;3.50;;;;;;;;;;4898172;29;20424;-78
2023/03/30 02:43:33;;;;;;;7.10;3.17;;;;;;;;;;4889019;29;20129;-75
2023/03/30 02:46:00;;;;;;;11.60;3.13;;;;;;;;;;4893085;29;20433;-75
2023/03/30 02:48:41;;;;;;;8.00;2.97;;;;;;;;;;4884189;29;20152;-75
2023/03/30 02:51:16;;;;;;;12.40;3.80;;;;;;;;;;4888476;29;20040;-78
2023/03/30 02:53:44;;;;;;;11.52;3.78;;;;;;;;;;4897340;29;20032;-77
2023/03/30 02:56:23;;;;;;;10.05;2.75;;;;;;;;;;4889406;29;20088;-78
2023/03/30 02:59:02;;;;;;;7.13;2.40;;;;;;;;;;4890434;29;20136;-78
2023/03/30 03:01:40;;;;;;;8.85;3.17;;;;;;;;;;4905443;29;20039;-77
2023/03/30 03:04:08;;;;;;;7.68;2.88;;;;;;;;;;4902131;29;20036;-82
2023/03/30 03:06:36;;;;;;;7.25;2.67;;;;;;;;;;4890690;29;20370;-77
2023/03/30 03:09:03;;;;;;;10.15;3.20;;;;;;;;;;4901266;29;20032;-79
2023/03/30 03:11:29;;;;;;;22.65;3.78;;;;;;;;;;4882335;29;20445;-79
2023/03/30 03:13:55;;;;;;;10.52;3.42;;;;;;;;;;4888159;29;20029;-78
2023/03/30 03:16:22;;;;;;;9.85;3.15;;;;;;;;;;4886252;29;20108;-78
2023/03/30 03:18:48;;;;;;;10.05;2.97;;;;;;;;;;4861912;29;20051;-80
2023/03/30 03:21:14;;;;;;;6.40;3.08;;;;;;;;;;4891603;29;20100;-78
2023/03/30 03:23:41;;;;;;;7.55;3.30;;;;;;;;;;4899525;29;20482;-78
2023/03/30 03:26:07;;;;;;;12.65;3.67;;;;;;;;;;4898895;29;20048;-79
2023/03/30 03:28:34;;;;;;;11.10;3.60;;;;;;;;;;4874254;29;20111;-76
2023/03/30 03:31:01;;;;;;;10.52;3.15;;;;;;;;;;4892348;29;20426;-77
2023/03/30 03:33:27;;;;;;;8.32;2.97;;;;;;;;;;4884051;29;20032;-76
2023/03/30 03:35:54;;;;;;;11.45;3.63;;;;;;;;;;4904008;29;20598;-77
2023/03/30 03:38:20;;;;;;;11.73;3.67;;;;;;;;;;4901234;29;20131;-78
2023/03/30 03:40:50;;;;;;;7.32;2.75;;;;;;;;;;4900005;29;20111;-77
2023/03/30 03:43:17;;;;;;;13.18;3.08;;;;;;;;;;4889787;29;20028;-77
2023/03/30 03:45:45;;;;;;;14.23;3.63;;;;;;;;;;4899532;29;20080;-79
2023/03/30 03:48:11;;;;;;;13.73;3.90;;;;;;;;;;4888619;29;20365;-77
2023/03/30 03:50:37;;;;;;;10.38;3.38;;;;;;;;;;4899830;29;20072;-77
2023/03/30 03:53:03;;;;;;;14.95;2.55;;;;;;;;;;4876970;29;20108;-78
2023/03/30 03:55:33;;;;;;;8.43;2.33;;;;;;;;;;4900422;29;20481;-78
2023/03/30 03:57:59;;;;;;;10.50;2.90;;;;;;;;;;4874719;29;20037;-78
2023/03/30 04:00:25;;;;;;;16.58;2.85;;;;;;;;;;4901486;29;20128;-78
2023/03/30 04:02:51;;;;;;;10.32;3.65;;;;;;;;;;4882315;29;20029;-78
2023/03/30 04:05:18;;;;;;;12.77;2.15;;;;;;;;;;4883103;29;20450;-78
2023/03/30 04:07:47;;;;;;;12.48;3.05;;;;;;;;;;4890601;29;20028;-80
2023/03/30 04:10:13;;;;;;;8.80;2.70;;;;;;;;;;4885779;29;20032;-81
2023/03/30 04:12:39;;;;;;;9.05;2.45;;;;;;;;;;4889516;29;20020;-78
2023/03/30 04:15:06;;;;;;;11.35;2.40;;;;;;;;;;4878263;29;20033;-79
2023/03/30 04:17:33;;;;;;;10.27;3.35;;;;;;;;;;4890590;29;20032;-78
2023/03/30 04:20:03;;;;;;;14.02;2.42;;;;;;;;;;4884877;29;20067;-77
2023/03/30 04:22:32;;;;;;;10.32;2.80;;;;;;;;;;4885388;29;20134;-77
2023/03/30 04:24:59;;;;;;;12.55;2.63;;;;;;;;;;4899549;29;20355;-77
2023/03/30 04:27:27;;;;;;;13.05;2.40;;;;;;;;;;4899098;29;20061;-77
2023/03/30 04:29:56;;;;;;;8.25;2.15;;;;;;;;;;4913935;29;20084;-78
2023/03/30 04:32:22;;;;;;;11.73;2.50;;;;;;;;;;4881723;29;20557;-78
2023/03/30 04:34:48;;;;;;;15.13;3.40;;;;;;;;;;4911113;29;20043;-77
2023/03/30 04:37:17;;;;;;;12.60;3.58;;;;;;;;;;4893495;29;20041;-77
2023/03/30 04:39:43;;;;;;;15.18;2.42;;;;;;;;;;4903239;29;20108;-78
2023/03/30 04:42:13;;;;;;;16.02;3.13;;;;;;;;;;4879958;29;20048;-81
2023/03/30 04:44:42;;;;;;;15.45;3.10;;;;;;;;;;4886053;29;20904;-77
2023/03/30 04:47:08;;;;;;;15.13;4.03;;;;;;;;;;4887093;29;20033;-78
2023/03/30 04:49:34;;;;;;;13.20;3.53;;;;;;;;;;4885804;29;20016;-77
2023/03/30 04:52:00;;;;;;;12.60;3.03;;;;;;;;;;4881683;29;20096;-77
2023/03/30 04:54:26;;;;;;;14.55;2.72;;;;;;;;;;4897706;29;20577;-78
2023/03/30 04:56:52;;;;;;;12.32;2.90;;;;;;;;;;4890519;29;20084;-77
2023/03/30 04:59:18;;;;;;;17.77;4.05;;;;;;;;;;4899766;29;20035;-77
2023/03/30 05:01:45;;;;;;;17.98;3.75;;;;;;;;;;4884804;29;20483;-77
2023/03/30 05:04:11;;;;;;;17.25;5.53;;;;;;;;;;4883229;29;20036;-78
2023/03/30 05:06:37;;;;;;;17.42;3.65;;;;;;;;;;4864594;29;20132;-82
2023/03/30 05:09:03;;;;;;;19.08;3.45;;;;;;;;;;4905526;29;20181;-80
2023/03/30 05:11:29;;;;;;;14.98;3.60;;;;;;;;;;4903138;29;20069;-78
2023/03/30 05:13:55;;;;;;;14.43;2.72;;;;;;;;;;4893140;29;20454;-77
2023/03/30 05:16:21;;;;;;;23.55;3.83;;;;;;;;;;4901702;29;20142;-75
2023/03/30 05:18:47;;;;;;;12.70;2.65;;;;;;;;;;4877633;29;20066;-77
2023/03/30 05:21:13;;;;;;;11.10;2.42;;;;;;;;;;4904440;29;20172;-78
2023/03/30 05:23:41;;;;;;;15.95;3.25;;;;;;;;;;4866700;29;20029;-76
2023/03/30 05:26:07;;;;;;;17.95;3.03;;;;;;;;;;4888835;29;20127;-77
2023/03/30 05:28:34;;;;;;;15.23;2.72;;;;;;;;;;4899273;29;22944;-76
2023/03/30 05:31:00;;;;;;;27.42;13.80;;;;;;;;;;4888966;29;20032;-79
2023/03/30 05:33:27;;;;;;;18.00;4.72;;;;;;;;;;4898908;29;20488;-78
2023/03/30 05:35:53;;;;;;;13.13;2.67;;;;;;;;;;4867747;29;20116;-77
2023/03/30 05:38:19;;;;;;;14.40;3.28;;;;;;;;;;4882762;29;20045;-78
2023/03/30 05:40:45;;;;;;;12.45;2.45;;;;;;;;;;4891123;29;20423;-77
2023/03/30 05:43:13;;;;;;;11.77;3.40;;;;;;;;;;4891565;29;20381;-80
2023/03/30 05:45:42;;;;;;;8.93;2.58;;;;;;;;;;4896812;29;20058;-79
2023/03/30 05:48:09;;;;;;;13.60;3.33;;;;;;;;;;4886631;29;20037;-79
2023/03/30 05:50:46;;;;;;;7.28;2.75;;;;;;;;;;4893651;29;20022;-77
2023/03/30 05:53:16;;;;;;;10.60;3.17;;;;;;;;;;4886863;29;20037;-78
2023/03/30 05:55:46;;;;;;;9.98;2.17;;;;;;;;;;4918425;29;20036;-75
2023/03/30 05:58:15;;;;;;;25.27;11.57;;;;;;;;;;4869547;29;20370;-78
2023/03/30 06:01:04;;;;;;;15.05;4.93;;;;;;;;;;4902005;29;20037;-77
2023/03/30 06:03:43;;;;;;;;;;;;;;;;;;;;;
2023/03/30 06:06:09;;;;;;;14.38;2.38;;;;;;;;;;4881150;29;20378;-79
2023/03/30 06:08:35;;;;;;;9.40;2.95;;;;;;;;;;4882010;29;20413;-77
2023/03/30 06:11:01;;;;;;;9.10;2.40;;;;;;;;;;4891501;29;20025;-78
2023/03/30 06:13:30;;;;;;;11.02;3.33;;;;;;;;;;4884637;29;20045;-77
2023/03/30 06:15:56;;;;;;;11.38;3.10;;;;;;;;;;4882661;29;20063;-77
2023/03/30 06:18:22;;;;;;;15.30;2.72;;;;;;;;;;4896767;29;20029;-78
2023/03/30 06:20:49;;;;;;;9.73;2.70;;;;;;;;;;4884511;29;20456;-78
2023/03/30 06:23:15;;;;;;;8.35;2.50;;;;;;;;;;4878373;29;20029;-77
2023/03/30 06:25:45;;;;;;;12.20;2.65;;;;;;;;;;4898607;29;20033;-75
2023/03/30 06:28:11;;;;;;;14.45;3.17;;;;;;;;;;4898617;29;20465;-78
2023/03/30 06:30:38;;;;;;;11.02;2.90;;;;;;;;;;4882431;29;20045;-78
2023/03/30 06:33:04;;;;;;;17.13;3.35;;;;;;;;;;4915905;29;20028;-79
2023/03/30 06:35:33;;;;;;;18.02;3.20;;;;;;;;;;4881914;29;20406;-77
2023/03/30 06:37:59;;;;;;;16.80;3.20;;;;;;;;;;4888270;29;20033;-77
2023/03/30 06:40:25;;;;;;;14.43;3.42;;;;;;;;;;4894941;29;20028;-75
2023/03/30 06:42:51;;;;;;;22.23;3.97;;;;;;;;;;4891421;29;20112;-76
2023/03/30 06:45:17;;;;;;;22.00;8.20;;;;;;;;;;4877778;29;20473;-77
2023/03/30 06:47:43;;;;;;;16.05;3.90;;;;;;;;;;4887007;29;20166;-76
2023/03/30 06:50:09;;;;;;;23.63;4.57;;;;;;;;;;4894673;29;20024;-78
2023/03/30 06:52:35;;;;;;;28.83;3.47;;;;;;;;;;4891266;29;20024;-76
2023/03/30 06:55:02;;;;;;;22.60;4.30;;;;;;;;;;4894678;29;20131;-78
2023/03/30 06:57:28;;;;;;;19.42;3.17;;;;;;;;;;4894374;29;20550;-77
2023/03/30 06:59:54;;;;;;;19.38;3.70;;;;;;;;;;4871357;29;20040;-78
2023/03/30 07:02:20;;;;;;;20.13;3.53;;;;;;;;;;4905095;29;20040;-78
2023/03/30 07:04:46;;;;;;;25.50;4.03;;;;;;;;;;4890211;29;20160;-79
2023/03/30 07:07:13;;;;;;;19.55;4.13;;;;;;;;;;4920562;29;20023;-79
2023/03/30 07:09:39;;;;;;;20.55;4.18;;;;;;;;;;4894085;29;20033;-81
2023/03/30 07:12:05;;;;;;;22.38;5.43;;;;;;;;;;4898098;29;20076;-77
2023/03/30 07:14:31;;;;;;;23.67;3.58;;;;;;;;;;4882098;29;20041;-77
2023/03/30 07:16:57;;;;;;;21.35;5.05;;;;;;;;;;4882598;29;20033;-78
2023/03/30 07:19:23;;;;;;;17.48;4.25;;;;;;;;;;4909054;29;20024;-75
2023/03/30 07:21:50;;;;;;;24.98;4.65;;;;;;;;;;4879560;29;20037;-77
2023/03/30 07:24:16;;;;;;;25.15;5.47;;;;;;;;;;4895253;29;20040;-75
2023/03/30 07:26:42;;;;;;;19.38;4.53;;;;;;;;;;4885741;29;20434;-75
2023/03/30 07:29:08;;;;;;;20.77;3.17;;;;;;;;;;4884951;29;20072;-75
2023/03/30 07:31:34;;;;;;;22.95;3.65;;;;;;;;;;4891026;29;20532;-75
2023/03/30 07:34:01;;;;;;;20.65;4.22;;;;;;;;;;4895949;29;20178;-76
2023/03/30 07:36:27;;;;;;;31.77;4.07;;;;;;;;;;4898471;29;20661;-75
2023/03/30 07:38:54;;;;;;;23.00;4.38;;;;;;;;;;4897482;29;20532;-76
2023/03/30 07:41:20;;;;;;;22.48;3.90;;;;;;;;;;4891496;29;20115;-76
2023/03/30 07:43:46;;;;;;;20.25;5.20;;;;;;;;;;4909254;29;20025;-76
2023/03/30 07:46:12;;;;;;;21.05;4.07;;;;;;;;;;4896888;29;20025;-78
2023/03/30 07:48:39;;;;;;;26.88;4.57;;;;;;;;;;4893420;29;20041;-75
2023/03/30 07:51:06;;;;;;;24.08;4.45;;;;;;;;;;4921001;29;20401;-80
2023/03/30 07:53:33;;;;;;;28.08;5.22;;;;;;;;;;4890510;29;20104;-75
2023/03/30 07:55:59;;;;;;;28.58;4.95;;;;;;;;;;4878799;29;20508;-74
2023/03/30 07:58:26;;;;;;;29.17;3.85;;;;;;;;;;4906545;29;20043;-74
2023/03/30 08:00:52;;;;;;;26.70;4.97;;;;;;;;;;4889317;29;20037;-74
2023/03/30 08:03:20;;;;;;;31.90;4.28;;;;;;;;;;4887367;29;20059;-79
2023/03/30 08:05:53;;;;;;;34.15;5.97;;;;;;;;;;4901311;29;20167;-75
2023/03/30 08:08:19;;;;;;;32.28;5.97;;;;;;;;;;4896845;29;20089;-76
2023/03/30 08:10:46;;;;;;;35.35;6.38;;;;;;;;;;4890509;29;20125;-75
2023/03/30 08:13:12;;;;;;;30.98;5.05;;;;;;;;;;4891556;29;20021;-75
2023/03/30 08:15:38;;;;;;;58.00;23.85;;;;;;;;;;4924128;29;20072;-73
2023/03/30 08:18:06;;;;;;;37.33;6.03;;;;;;;;;;4896868;29;20041;-74
2023/03/30 08:20:35;;;;;;;38.67;6.40;;;;;;;;;;4896280;29;20041;-75
2023/03/30 08:23:01;;;;;;;25.33;4.40;;;;;;;;;;4891493;29;20102;-76
2023/03/30 08:25:28;;;;;;;36.55;5.40;;;;;;;;;;4896759;29;20128;-75
2023/03/30 08:27:55;;;;;;;41.15;7.18;;;;;;;;;;4875060;29;20045;-74
2023/03/30 08:30:21;;;;;;;31.10;4.88;;;;;;;;;;4902714;29;20423;-74
2023/03/30 08:32:47;;;;;;;38.20;6.03;;;;;;;;;;4893466;29;20021;-74
2023/03/30 08:35:13;;;;;;;31.55;7.38;;;;;;;;;;4895392;29;20033;-74
2023/03/30 08:37:39;;;;;;;32.92;5.30;;;;;;;;;;4895572;29;20124;-75
2023/03/30 08:40:08;;;;;;;33.35;6.25;;;;;;;;;;4894404;29;20029;-75
2023/03/30 08:42:40;;;;;;;37.60;7.15;;;;;;;;;;4895450;29;20024;-74
2023/03/30 08:45:11;;;;;;;33.22;5.55;;;;;;;;;;4890647;29;20350;-76
2023/03/30 08:47:38;;;;;;;34.50;4.93;;;;;;;;;;4907355;29;20024;-72
2023/03/30 08:50:11;;;;;;;40.67;5.82;;;;;;;;;;4904678;29;20164;-75
2023/03/30 08:52:38;;;;;;;32.30;7.25;;;;;;;;;;4891336;29;20052;-73
2023/03/30 08:55:04;;;;;;;32.22;5.55;;;;;;;;;;4899290;29;20088;-75
2023/03/30 08:57:33;;;;;;;35.40;5.68;;;;;;;;;;4899767;29;20040;-76
2023/03/30 09:00:13;;;;;;;35.80;7.57;;;;;;;;;;4899906;29;20024;-75
2023/03/30 09:02:41;;;;;;;30.23;5.50;;;;;;;;;;4888196;29;20025;-75
2023/03/30 09:05:22;;;;;;;35.53;6.25;;;;;;;;;;4886228;29;20036;-75
2023/03/30 09:11:18;;;;;;;26.13;5.07;;;;;;;;;;4886211;29;20387;-79
2023/03/30 09:14:14;;;;;;;;;;;;;;;;;;;;;
2023/03/30 09:17:11;;;;;;;28.20;5.13;;;;;;;;;;4887061;29;20032;-77
2023/03/30 09:19:46;;;;;;;26.85;4.97;;;;;;;;;;4889666;29;20423;-76
2023/03/30 09:22:13;;;;;;;27.33;5.85;;;;;;;;;;4908385;29;20024;-77
2023/03/30 09:24:39;;;;;;;26.13;5.03;;;;;;;;;;4895700;29;20119;-76
2023/03/30 09:27:32;;;;;;;28.77;5.60;;;;;;;;;;4893265;29;20052;-77
2023/03/30 09:30:03;;;;;;;26.42;4.63;;;;;;;;;;4891953;29;20400;-77
2023/03/30 09:32:29;;;;;;;23.38;4.72;;;;;;;;;;4909877;29;20025;-76
2023/03/30 09:34:59;;;;;;;26.58;4.80;;;;;;;;;;4911645;29;20055;-76
2023/03/30 09:37:27;;;;;;;22.17;4.07;;;;;;;;;;4893668;29;20451;-76
2023/03/30 09:39:54;;;;;;;28.13;4.55;;;;;;;;;;4891730;29;20084;-73
2023/03/30 09:42:35;;;;;;;25.85;4.72;;;;;;;;;;4893405;29;20072;-77
2023/03/30 09:45:06;;;;;;;33.28;6.40;;;;;;;;;;4895205;29;20116;-74
2023/03/30 09:47:32;;;;;;;19.73;4.00;;;;;;;;;;4893154;29;20032;-73
2023/03/30 09:49:59;;;;;;;26.90;4.63;;;;;;;;;;4894578;29;20036;-74
2023/03/30 09:52:27;;;;;;;28.00;4.78;;;;;;;;;;4902482;29;20024;-73
2023/03/30 09:54:53;;;;;;;23.02;4.63;;;;;;;;;;4878317;29;20041;-75
2023/03/30 09:57:27;;;;;;;24.08;4.22;;;;;;;;;;4901931;29;20387;-75
2023/03/30 09:59:54;;;;;;;28.42;5.47;;;;;;;;;;4889882;29;20147;-74
2023/03/30 10:02:21;;;;;;;21.02;4.35;;;;;;;;;;4903159;29;20063;-75
2023/03/30 10:04:53;;;;;;;29.73;5.63;;;;;;;;;;4884557;29;20462;-74
2023/03/30 10:07:36;;;;;;;28.98;5.47;;;;;;;;;;4885651;29;20466;-75
2023/03/30 10:10:16;;;;;;;24.60;4.43;;;;;;;;;;4884806;29;20028;-75
2023/03/30 10:12:42;;;;;;;22.83;4.88;;;;;;;;;;4893318;29;20043;-75
2023/03/30 10:15:15;;;;;;;29.35;6.03;;;;;;;;;;4880480;29;20028;-74
2023/03/30 10:17:41;;;;;;;28.33;5.68;;;;;;;;;;4883552;29;20154;-74
2023/03/30 10:20:16;;;;;;;29.42;5.90;;;;;;;;;;4879651;29;20033;-77
2023/03/30 10:23:02;;;;;;;52.90;19.08;;;;;;;;;;4900092;29;20032;-76
2023/03/30 10:25:30;;;;;;;41.35;7.18;;;;;;;;;;4890352;29;20041;-76
2023/03/30 10:28:00;;;;;;;29.92;5.28;;;;;;;;;;4883719;29;20052;-76
2023/03/30 10:30:27;;;;;;;36.40;5.18;;;;;;;;;;4883215;29;20036;-76
2023/03/30 10:32:55;;;;;;;31.35;5.55;;;;;;;;;;4883647;29;20052;-74
2023/03/30 10:35:23;;;;;;;31.92;5.50;;;;;;;;;;4909421;29;20028;-76
2023/03/30 10:37:51;;;;;;;19.85;5.03;;;;;;;;;;4880680;29;21611;-75
2023/03/30 10:40:20;;;;;;;28.08;4.68;;;;;;;;;;4910497;29;20386;-76
2023/03/30 10:42:49;;;;;;;28.88;5.55;;;;;;;;;;4887127;29;20538;-75
2023/03/30 10:45:18;;;;;;;32.55;5.85;;;;;;;;;;4885022;29;20181;-75
2023/03/30 10:47:47;;;;;;;38.88;7.95;;;;;;;;;;4885789;29;20025;-74
2023/03/30 10:50:13;;;;;;;29.58;5.82;;;;;;;;;;4875267;29;20973;-76
2023/03/30 10:52:45;;;;;;;30.13;5.65;;;;;;;;;;4883874;29;20033;-73
2023/03/30 10:55:21;;;;;;;33.47;6.57;;;;;;;;;;4886085;29;21522;-75
2023/03/30 10:57:55;;;;;;;33.50;5.63;;;;;;;;;;4907084;29;20032;-74
2023/03/30 11:00:33;;;;;;;27.45;6.10;;;;;;;;;;4900738;29;20072;-75
2023/03/30 11:03:06;;;;;;;24.80;5.43;;;;;;;;;;4886276;29;20569;-76
2023/03/30 11:05:35;;;;;;;47.13;14.63;;;;;;;;;;4914649;29;20029;-73
2023/03/30 11:08:11;;;;;;;25.50;4.93;;;;;;;;;;4889480;29;20155;-78
2023/03/30 11:10:39;;;;;;;25.15;4.00;;;;;;;;;;4906742;29;20032;-75
2023/03/30 11:13:12;;;;;;;25.00;5.20;;;;;;;;;;4889545;29;20032;-76
2023/03/30 11:15:49;;;;;;;38.63;6.72;;;;;;;;;;4892411;29;20119;-75
2023/03/30 11:18:15;;;;;;;26.50;5.00;;;;;;;;;;4888451;29;20482;-76
2023/03/30 11:20:44;;;;;;;31.05;6.15;;;;;;;;;;4908161;29;20025;-76
2023/03/30 11:23:13;;;;;;;25.10;5.28;;;;;;;;;;4924543;29;20312;-77
2023/03/30 11:25:45;;;;;;;30.70;6.22;;;;;;;;;;4894788;29;20101;-76
2023/03/30 11:28:20;;;;;;;28.10;5.47;;;;;;;;;;4902325;29;20049;-76
2023/03/30 11:30:48;;;;;;;26.85;5.25;;;;;;;;;;4890263;29;20107;-76
2023/03/30 11:33:28;;;;;;;26.05;6.68;;;;;;;;;;4901660;29;20039;-76
2023/03/30 11:36:18;;;;;;;29.63;4.97;;;;;;;;;;4896080;29;20374;-77
2023/03/30 11:38:48;;;;;;;26.42;6.40;;;;;;;;;;4905620;29;20048;-76
2023/03/30 11:41:18;;;;;;;29.20;6.43;;;;;;;;;;4885327;29;20028;-76
2023/03/30 11:43:44;;;;;;;28.63;5.38;;;;;;;;;;4905463;29;20112;-76
2023/03/30 11:46:34;;;;;;;21.23;4.32;;;;;;;;;;4894683;29;20184;-76
2023/03/30 11:49:03;;;;;;;22.50;5.25;;;;;;;;;;4894109;29;20044;-76
2023/03/30 11:51:32;;;;;;;31.42;6.32;;;;;;;;;;4897553;29;20029;-76
2023/03/30 11:54:18;;;;;;;27.40;6.47;;;;;;;;;;4896511;29;20458;-76
2023/03/30 11:56:47;;;;;;;28.95;5.32;;;;;;;;;;4896359;29;20954;-76
2023/03/30 11:59:24;;;;;;;33.78;5.40;;;;;;;;;;4892319;29;20390;-76
2023/03/30 12:02:05;;;;;;;33.58;5.82;;;;;;;;;;4896443;29;20024;-76
2023/03/30 12:04:38;;;;;;;19.73;4.43;;;;;;;;;;4894253;29;20113;-76
2023/03/30 12:07:08;;;;;;;26.90;5.50;;;;;;;;;;4894013;29;20078;-77
2023/03/30 12:09:37;;;;;;;31.17;5.95;;;;;;;;;;4895782;29;20036;-76
2023/03/30 12:12:24;;;;;;;30.60;6.07;;;;;;;;;;4897136;29;20029;-76
2023/03/30 12:15:09;;;;;;;28.95;6.22;;;;;;;;;;4900763;29;20033;-76
2023/03/30 12:17:38;;;;;;;31.10;5.55;;;;;;;;;;4879670;29;20066;-75
2023/03/30 12:20:10;;;;;;;34.60;4.63;;;;;;;;;;4893032;29;20071;-76
2023/03/30 12:22:36;;;;;;;;;;;;;;;;;;4886490;29;20024;-75
2023/03/30 12:25:05;;;;;;;23.58;5.95;;;;;;;;;;4894734;29;20252;-76
2023/03/30 12:27:35;;;;;;;34.35;5.15;;;;;;;;;;4899171;29;20036;-75
2023/03/30 12:30:23;;;;;;;32.17;5.25;;;;;;;;;;4896439;29;20044;-76
2023/03/30 12:33:03;;;;;;;28.85;6.65;;;;;;;;;;4891461;29;20136;-75
2023/03/30 12:35:47;;;;;;;31.30;5.97;;;;;;;;;;4894564;29;20105;-75
2023/03/30 12:38:20;;;;;;;38.15;7.13;;;;;;;;;;4897145;29;20032;-75
2023/03/30 12:40:53;;;;;;;34.45;7.20;;;;;;;;;;4894409;29;20020;-75
2023/03/30 12:43:24;;;;;;;30.48;5.55;;;;;;;;;;4895502;29;20024;-77
2023/03/30 12:46:04;;;;;;;28.53;5.83;;;;;;;;;;4896568;29;20043;-76
2023/03/30 12:48:45;;;;;;;41.72;7.90;;;;;;;;;;4892784;29;20064;-75
2023/03/30 12:51:19;;;;;;;26.92;5.22;;;;;;;;;;4910270;29;20036;-76
2023/03/30 12:53:45;;;;;;;32.22;6.15;;;;;;;;;;4894690;29;20052;-76
2023/03/30 12:56:12;;;;;;;32.05;5.70;;;;;;;;;;4895517;29;20024;-75
2023/03/30 12:58:53;;;;;;;34.42;5.38;;;;;;;;;;4909863;29;20028;-75
2023/03/30 13:01:39;;;;;;;26.75;5.75;;;;;;;;;;4896046;29;20025;-76
2023/03/30 13:04:08;;;;;;;34.47;6.40;;;;;;;;;;4895969;29;20021;-77
2023/03/30 13:06:35;;;;;;;25.67;6.03;;;;;;;;;;4894317;29;20031;-75
2023/03/30 13:09:24;;;;;;;25.38;5.32;;;;;;;;;;4884417;29;20034;-76
2023/03/30 13:11:53;;;;;;;25.63;4.57;;;;;;;;;;4890762;29;20043;-78
2023/03/30 13:14:39;;;;;;;27.60;5.53;;;;;;;;;;4913139;29;20025;-78
2023/03/30 13:17:11;;;;;;;33.85;5.85;;;;;;;;;;4921528;29;20028;-75
2023/03/30 13:19:37;;;;;;;30.73;6.03;;;;;;;;;;4917231;29;20032;-76
2023/03/30 13:22:12;;;;;;;27.85;5.75;;;;;;;;;;4881358;29;20048;-76
2023/03/30 13:24:43;;;;;;;33.85;6.22;;;;;;;;;;4903523;29;20033;-76
2023/03/30 13:27:20;;;;;;;32.22;6.30;;;;;;;;;;4891776;29;20108;-75
2023/03/30 13:29:53;;;;;;;33.65;6.10;;;;;;;;;;4880520;29;20464;-75
2023/03/30 13:32:23;;;;;;;37.55;6.25;;;;;;;;;;4901032;29;20048;-74
2023/03/30 13:34:58;;;;;;;32.20;6.75;;;;;;;;;;4883426;29;20748;-75
2023/03/30 13:37:30;;;;;;;32.67;5.53;;;;;;;;;;4889719;29;20037;-74
2023/03/30 13:39:56;;;;;;;39.33;5.32;;;;;;;;;;4920300;29;20033;-74
2023/03/30 13:42:22;;;;;;;31.17;5.70;;;;;;;;;;4909706;29;20463;-77
2023/03/30 13:45:01;;;;;;;33.78;6.93;;;;;;;;;;4910140;29;20045;-74
2023/03/30 13:47:33;;;;;;;32.92;5.63;;;;;;;;;;4891009;29;20032;-75
2023/03/30 13:50:02;;;;;;;29.23;5.50;;;;;;;;;;4902179;29;20028;-76
2023/03/30 13:52:40;;;;;;;27.55;6.03;;;;;;;;;;4895377;29;20119;-75
2023/03/30 13:55:15;;;;;;;34.15;5.15;;;;;;;;;;4901369;29;20036;-77
2023/03/30 13:57:43;;;;;;;27.77;5.97;;;;;;;;;;4905419;29;20033;-75
2023/03/30 14:00:09;;;;;;;31.08;5.65;;;;;;;;;;4871848;29;20032;-76
2023/03/30 14:02:40;;;;;;;25.33;4.80;;;;;;;;;;4894321;29;20031;-74
2023/03/30 14:05:20;;;;;;;38.90;7.00;;;;;;;;;;4893404;29;20036;-76
2023/03/30 14:07:46;;;;;;;33.05;6.10;;;;;;;;;;4909193;29;20350;-76
2023/03/30 14:10:14;;;;;;;31.70;6.43;;;;;;;;;;4888602;29;20021;-76
2023/03/30 14:12:41;;;;;;;33.83;6.80;;;;;;;;;;4887088;29;20412;-73
2023/03/30 14:15:19;;;;;;;41.42;7.38;;;;;;;;;;4894091;29;20046;-74
2023/03/30 14:17:48;;;;;;;28.35;6.97;;;;;;;;;;4884356;29;20058;-71
2023/03/30 14:20:29;;;;;;;32.60;5.68;;;;;;;;;;4886862;29;20028;-74
2023/03/30 14:22:57;;;;;;;29.45;6.63;;;;;;;;;;4901957;29;20120;-75
2023/03/30 14:25:32;;;;;;;38.30;6.43;;;;;;;;;;4896142;29;20033;-74
2023/03/30 14:28:13;;;;;;;48.22;7.65;;;;;;;;;;4905109;29;20025;-75
2023/03/30 14:30:47;;;;;;;40.47;6.45;;;;;;;;;;4898738;29;20382;-74
2023/03/30 14:33:13;;;;;;;34.80;6.50;;;;;;;;;;4893284;29;20032;-75
2023/03/30 14:35:42;;;;;;;40.60;5.97;;;;;;;;;;4896991;29;20037;-75
2023/03/30 14:38:16;;;;;;;35.83;7.85;;;;;;;;;;4895720;29;20036;-76
2023/03/30 14:40:42;;;;;;;38.05;5.93;;;;;;;;;;4907800;29;20033;-74
2023/03/30 14:43:19;;;;;;;34.47;7.20;;;;;;;;;;4910069;29;20029;-75
2023/03/30 14:45:45;;;;;;;30.05;6.43;;;;;;;;;;4906606;29;20028;-76
2023/03/30 14:48:18;;;;;;;38.38;7.03;;;;;;;;;;4889426;29;20074;-76
2023/03/30 14:50:46;;;;;;;41.75;6.97;;;;;;;;;;4890899;29;20024;-76
2023/03/30 14:53:12;;;;;;;42.17;7.43;;;;;;;;;;4890515;29;20662;-76